Argo — SMOH — position and weather

sailwx.info

Track history (hours):
 
Tides and Currents Weather Stations Pressure Air Temp Water Temp Dewpoint Dewpoint Depression Visibility Wind Speed Wind Dir Waves Ship Positions

Argo

Last reported at 2016-Dec-14 12:29 UTC. Time now 2017-Jan-24 07:11 UTC.
Position N 56°09' E 015°35'.
Warning: this ship's position is 40 days out of date.

Length 26 m.

Type: Military. MMSI: 265591600.

Date/timePositionNaut miles runAvg speedWind from/ knotsBaromVisibWave heightAir tempDewpointWater temp
2016-Dec-14 12:29N 56°09' E 015°35'3 2.7
2016-Dec-14 11:34N 56°08' E 015°31'1 0.4
2016-Dec-14 10:16N 56°08' E 015°32'2 0.1
2016-Dec-13 13:31N 56°09' E 015°35'1 1.2
2016-Dec-13 12:32N 56°08' E 015°35'1 1.3
2016-Dec-13 11:33N 56°09' E 015°36'0 0.2
2016-Dec-13 10:26N 56°09' E 015°35'2 2.0
2016-Dec-13 09:33N 56°08' E 015°33'2 2.3
2016-Dec-13 08:33N 56°08' E 015°29'4 0.2
2016-Dec-12 14:24N 56°09' E 015°35'1 1.4
2016-Dec-12 13:33N 56°08' E 015°35'1 1.0
2016-Dec-12 12:34N 56°08' E 015°33'2 1.8
2016-Dec-12 11:31N 56°09' E 015°35'  
Track history (hours):
 
Tides and Currents Weather Stations Pressure Air Temp Water Temp Dewpoint Dewpoint Depression Visibility Wind Speed Wind Dir Waves Ship Positions

Argo

Last reported at 2016-Dec-14 12:29 UTC. Time now 2017-Jan-24 07:11 UTC.
Position N 56°09' E 015°35'.
Warning: this ship's position is 40 days out of date.

Length 26 m.

Type: Military. MMSI: 265591600.

Date/timePositionNaut miles runAvg speedWind from/ knotsBaromVisibWave heightAir tempDewpointWater temp
2016-Dec-14 12:29N 56°09' E 015°35'3 2.7
2016-Dec-14 11:34N 56°08' E 015°31'1 0.4
2016-Dec-14 10:16N 56°08' E 015°32'2 0.1
2016-Dec-13 13:31N 56°09' E 015°35'1 1.2
2016-Dec-13 12:32N 56°08' E 015°35'1 1.3
2016-Dec-13 11:33N 56°09' E 015°36'0 0.2
2016-Dec-13 10:26N 56°09' E 015°35'2 2.0
2016-Dec-13 09:33N 56°08' E 015°33'2 2.3
2016-Dec-13 08:33N 56°08' E 015°29'4 0.2
2016-Dec-12 14:24N 56°09' E 015°35'1 1.4
2016-Dec-12 13:33N 56°08' E 015°35'1 1.0
2016-Dec-12 12:34N 56°08' E 015°33'2 1.8
2016-Dec-12 11:31N 56°09' E 015°35'  

Dump ship's entire track history